createdAt,value
2019-04-22T13:35:49.841Z,69.30
2019-04-22T13:38:19.243Z,47.50
2019-04-22T13:41:02.181Z,44.90
2019-04-22T13:43:18.790Z,43.30
2019-04-22T13:45:47.734Z,41.90
2019-04-22T13:48:33.490Z,40.10
2019-04-22T13:51:18.622Z,39.10
2019-04-22T13:56:03.232Z,37.40
2019-04-22T13:58:29.110Z,37.10
2019-04-22T14:00:42.577Z,36.50
2019-04-22T14:03:12.917Z,36.00
2019-04-22T14:05:40.956Z,35.70
2019-04-22T14:08:10.376Z,35.20
2019-04-22T14:10:38.704Z,35.60
2019-04-22T14:13:12.291Z,34.70
2019-04-22T14:15:42.254Z,34.60
2019-04-22T14:18:10.756Z,34.20
2019-04-22T14:20:40.750Z,34.10
2019-04-22T14:23:10.212Z,33.90
2019-04-22T14:25:38.939Z,33.70
2019-04-22T14:28:12.050Z,35.30
2019-04-22T14:30:44.362Z,35.60
2019-04-22T14:33:13.945Z,35.70
2019-04-22T14:35:41.990Z,35.70
2019-04-22T14:38:10.187Z,36.20
2019-04-22T14:40:38.641Z,36.70
2019-04-22T14:43:29.024Z,36.30
2019-04-22T14:46:07.057Z,36.20
2019-04-22T14:48:35.951Z,36.10
2019-04-22T14:50:56.254Z,36.10
2019-04-22T14:55:44.409Z,35.90
2019-04-22T14:58:13.020Z,36.10
2019-04-22T15:00:45.947Z,35.80
2019-04-22T15:03:13.890Z,36.00
2019-04-22T15:05:42.086Z,36.00
2019-04-22T15:08:10.980Z,35.90
2019-04-22T15:10:42.307Z,35.90
2019-04-22T15:13:11.491Z,36.00
2019-04-22T15:15:48.005Z,36.40
2019-04-22T15:18:13.587Z,36.60
2019-04-22T15:20:41.606Z,36.20
2019-04-22T15:23:14.725Z,36.20
2019-04-22T15:25:44.222Z,36.10
2019-04-22T15:28:13.456Z,35.00
2019-04-22T15:30:41.619Z,34.60
2019-04-22T15:33:23.650Z,34.60
2019-04-22T15:35:55.552Z,34.40
2019-04-22T15:38:24.359Z,34.40
2019-04-22T15:40:54.504Z,34.30
2019-04-22T15:43:27.356Z,34.50
2019-04-22T15:45:54.746Z,34.70
2019-04-22T15:48:25.117Z,35.50
2019-04-22T15:51:00.207Z,37.00
2019-04-22T15:53:33.770Z,37.10
2019-04-22T15:55:58.951Z,37.00
2019-04-22T15:58:30.282Z,37.20
2019-04-22T16:01:08.908Z,36.90
2019-04-22T16:03:29.013Z,37.20
2019-04-22T16:06:02.148Z,37.60
2019-04-22T16:08:33.590Z,37.70
2019-04-22T16:11:00.021Z,37.80
2019-04-22T16:13:31.928Z,37.60
2019-04-22T16:16:03.121Z,37.40
2019-04-22T16:18:33.690Z,37.70
2019-04-22T16:21:05.235Z,38.20
2019-04-22T16:23:34.095Z,38.40
2019-04-22T16:26:07.332Z,38.20
2019-04-22T16:28:37.690Z,38.00
2019-04-22T16:31:09.292Z,38.20
2019-04-22T16:33:41.474Z,38.10
2019-04-22T16:36:09.034Z,38.00
2019-04-22T16:38:37.721Z,37.60
2019-04-22T16:41:08.529Z,37.20
2019-04-22T16:43:38.371Z,37.20
2019-04-22T16:46:07.643Z,37.10
2019-04-22T16:48:36.171Z,37.60
2019-04-22T16:51:04.363Z,36.90
2019-04-22T16:53:32.806Z,37.30
2019-04-22T16:56:02.669Z,38.10
2019-04-22T16:58:32.613Z,39.20
2019-04-22T17:01:00.839Z,39.30
2019-04-22T17:03:30.742Z,39.20
2019-04-22T17:06:03.592Z,38.50
2019-04-22T17:08:32.872Z,38.50
2019-04-22T17:11:04.820Z,39.00
2019-04-22T17:13:34.656Z,38.90
2019-04-22T17:16:02.875Z,38.80
2019-04-22T17:18:32.950Z,38.60
2019-04-22T17:21:03.703Z,38.60
2019-04-22T17:23:31.659Z,38.70
2019-04-22T17:26:06.207Z,38.10
2019-04-22T17:28:35.462Z,37.60
2019-04-22T17:31:06.664Z,37.10
2019-04-22T17:33:35.170Z,37.00
2019-04-22T17:36:03.519Z,37.00
2019-04-22T17:38:42.799Z,36.80
2019-04-22T17:41:18.739Z,36.40
2019-04-22T17:43:55.741Z,36.10
2019-04-22T17:46:19.574Z,36.00
2019-04-22T17:48:53.030Z,35.60
2019-04-22T17:51:29.850Z,35.50
2019-04-22T17:53:55.043Z,35.80
2019-04-22T17:56:27.529Z,35.70
2019-04-22T17:58:57.275Z,35.60
2019-04-22T18:01:24.002Z,35.80
2019-04-22T18:03:40.516Z,36.00
2019-04-22T18:06:08.867Z,36.30
2019-04-22T18:08:50.195Z,36.60
2019-04-22T18:11:30.568Z,36.40
2019-04-22T18:14:00.221Z,36.50
2019-04-22T18:16:27.599Z,36.20
2019-04-22T18:18:59.957Z,36.20
2019-04-22T18:21:25.480Z,36.00
2019-04-22T18:23:51.979Z,35.70
2019-04-22T18:26:24.389Z,35.90
2019-04-22T18:28:54.068Z,35.60
2019-04-22T18:31:19.840Z,36.20
2019-04-22T18:33:50.200Z,36.10
2019-04-22T18:36:19.290Z,36.10
2019-04-22T18:38:59.795Z,36.10
2019-04-22T18:41:23.786Z,36.00
2019-04-22T18:44:01.854Z,35.90
2019-04-22T18:46:29.530Z,36.10
2019-04-22T18:48:55.862Z,36.10
2019-04-22T18:51:31.512Z,36.10
2019-04-22T18:53:54.081Z,36.40
2019-04-22T18:56:31.473Z,36.40
2019-04-22T18:58:46.377Z,36.10
2019-04-22T19:01:03.817Z,36.00
2019-04-22T19:03:44.732Z,36.30
2019-04-22T19:06:38.307Z,37.00
2019-04-22T19:08:56.244Z,36.60
2019-04-22T19:11:22.392Z,37.30
2019-04-22T19:14:07.490Z,36.90
2019-04-22T19:16:35.051Z,36.90
2019-04-22T19:18:56.469Z,38.00
2019-04-22T19:21:26.292Z,38.10
2019-04-22T19:23:54.345Z,38.60
2019-04-22T19:26:40.983Z,38.50
2019-04-22T19:28:54.139Z,38.70
2019-04-22T19:31:25.057Z,38.80
2019-04-22T19:33:56.207Z,38.70
2019-04-22T19:36:26.397Z,38.80
2019-04-22T19:38:52.657Z,38.90
2019-04-22T19:41:24.101Z,39.10
2019-04-22T19:43:50.304Z,39.30
2019-04-22T19:46:20.961Z,39.00
2019-04-22T19:51:24.255Z,39.00
2019-04-22T19:53:53.328Z,39.10
2019-04-22T19:56:11.518Z,39.00
2019-04-22T19:58:52.424Z,39.00
2019-04-22T20:01:17.177Z,38.90
2019-04-22T20:03:57.975Z,38.60
2019-04-22T20:06:15.836Z,38.40
2019-04-22T20:08:48.818Z,38.30
2019-04-22T20:11:21.750Z,38.40
2019-04-22T20:13:48.042Z,38.80
2019-04-22T20:16:06.150Z,39.70
2019-04-22T20:18:52.338Z,40.50
2019-04-22T20:21:18.402Z,39.60
2019-04-22T20:23:37.195Z,39.40
2019-04-22T20:26:07.566Z,39.20
2019-04-22T20:28:43.379Z,39.20
2019-04-22T20:31:14.210Z,39.20
2019-04-22T20:33:48.074Z,39.10
2019-04-22T20:36:26.439Z,39.50
2019-04-22T20:38:39.871Z,40.00
2019-04-22T20:41:08.937Z,40.30
2019-04-22T20:43:51.482Z,40.80
2019-04-22T20:46:08.830Z,40.80
2019-04-22T20:48:46.941Z,40.90
2019-04-22T20:51:04.162Z,40.80
2019-04-22T20:53:46.034Z,41.00
2019-04-22T20:56:06.339Z,41.10
2019-04-22T20:58:40.004Z,41.40
2019-04-22T21:00:55.579Z,41.50
2019-04-22T21:03:26.564Z,41.50
2019-04-22T21:05:55.813Z,41.00
2019-04-22T21:08:40.349Z,41.40
2019-04-22T21:10:56.110Z,41.10
2019-04-22T21:13:30.558Z,41.30
2019-04-22T21:16:04.127Z,41.70
2019-04-22T21:18:44.664Z,42.40
2019-04-22T21:21:07.206Z,42.90
2019-04-22T21:23:27.670Z,43.00
2019-04-22T21:26:02.368Z,42.60
2019-04-22T21:28:33.206Z,43.00
2019-04-22T21:30:57.179Z,43.40
2019-04-22T21:33:24.892Z,43.30
2019-04-22T21:36:06.770Z,43.40
2019-04-22T21:38:35.933Z,43.20
2019-04-22T21:40:56.670Z,42.70
2019-04-22T21:43:29.970Z,42.40
2019-04-22T21:46:04.864Z,42.10
2019-04-22T21:48:36.871Z,41.80
2019-04-22T21:50:59.892Z,41.70
2019-04-22T21:53:31.498Z,42.30
2019-04-22T21:56:13.033Z,43.30
2019-04-22T21:58:27.941Z,44.00
2019-04-22T22:01:06.517Z,44.90
2019-04-22T22:03:23.737Z,69.80
2019-04-22T22:05:46.299Z,66.60
2019-04-22T22:08:35.244Z,66.60
2019-04-22T22:10:58.452Z,65.80
2019-04-22T22:13:32.090Z,64.30
2019-04-22T22:15:52.142Z,63.20
2019-04-22T22:18:19.057Z,62.20
2019-04-22T22:21:13.010Z,61.40
2019-04-22T22:25:47.996Z,60.60
2019-04-22T22:28:41.735Z,60.20
2019-04-22T22:31:01.989Z,61.20
2019-04-22T22:33:27.183Z,61.00
2019-04-22T22:35:57.401Z,60.60
2019-04-22T22:38:21.150Z,60.50
2019-04-22T22:40:34.005Z,60.30
2019-04-22T22:43:05.389Z,60.00
2019-04-22T22:45:37.090Z,60.10
